createdAt,value
2022-09-23T00:00:15.874Z,0.00
2022-09-23T00:01:15.966Z,0.00
2022-09-23T00:02:15.895Z,0.00
2022-09-23T00:03:15.859Z,0.00
2022-09-23T00:04:15.868Z,0.00
2022-09-23T00:05:15.845Z,0.00
2022-09-23T00:06:15.844Z,0.00
2022-09-23T00:07:15.836Z,0.00
2022-09-23T00:08:15.827Z,0.00
2022-09-23T00:09:15.852Z,0.00
2022-09-23T00:10:15.817Z,0.00
2022-09-23T00:11:15.813Z,0.00
2022-09-23T00:12:15.809Z,0.00
2022-09-23T00:13:15.803Z,0.00
2022-09-23T00:14:15.816Z,0.00
2022-09-23T00:15:15.804Z,0.00
2022-09-23T00:16:15.823Z,0.00
2022-09-23T00:17:15.778Z,0.00
2022-09-23T00:18:15.782Z,0.00
2022-09-23T00:19:15.771Z,0.00
2022-09-23T00:20:15.786Z,0.00
2022-09-23T00:21:15.770Z,0.00
2022-09-23T00:22:15.759Z,0.00
2022-09-23T00:23:15.754Z,0.00
2022-09-23T00:24:15.769Z,0.00
2022-09-23T00:25:15.742Z,0.00
2022-09-23T00:26:15.746Z,0.00
2022-09-23T00:27:15.744Z,0.00
2022-09-23T00:28:15.726Z,0.00
2022-09-23T00:29:15.718Z,0.00
2022-09-23T00:30:15.746Z,0.00
2022-09-23T00:31:15.745Z,0.00
2022-09-23T00:32:15.704Z,0.00
2022-09-23T00:33:15.702Z,0.00
2022-09-23T00:34:15.685Z,0.00
2022-09-23T00:35:15.679Z,0.00
2022-09-23T00:36:15.815Z,0.00
2022-09-23T00:37:15.671Z,0.00
2022-09-23T00:38:15.668Z,0.00
2022-09-23T00:39:15.654Z,0.00
2022-09-23T00:40:15.728Z,0.00
2022-09-23T00:41:15.652Z,0.00
2022-09-23T00:42:15.669Z,0.00
2022-09-23T00:43:15.644Z,0.00
2022-09-23T00:44:15.641Z,1.00
2022-09-23T00:45:15.623Z,0.00
2022-09-23T00:46:15.658Z,0.00
2022-09-23T00:47:15.619Z,0.00
2022-09-23T00:48:15.629Z,0.00
2022-09-23T00:49:15.622Z,0.00
2022-09-23T00:50:15.601Z,0.00
2022-09-23T00:51:15.594Z,0.00
2022-09-23T00:52:15.590Z,0.00
2022-09-23T00:53:15.583Z,0.00
2022-09-23T00:54:15.607Z,0.00
2022-09-23T00:55:15.580Z,0.00
2022-09-23T00:56:15.573Z,0.00
2022-09-23T00:57:15.560Z,0.00
2022-09-23T00:58:15.554Z,0.00
2022-09-23T00:59:15.547Z,0.00
2022-09-23T01:00:15.572Z,0.00
2022-09-23T01:01:15.578Z,0.00
2022-09-23T01:02:15.557Z,0.00
2022-09-23T01:03:15.531Z,0.00
2022-09-23T01:04:15.521Z,0.00
2022-09-23T01:05:15.525Z,0.00
2022-09-23T01:06:15.535Z,0.00
2022-09-23T01:07:15.527Z,0.00
2022-09-23T01:08:15.499Z,0.00
2022-09-23T01:09:15.496Z,0.00
2022-09-23T01:10:15.487Z,0.00
2022-09-23T01:11:15.486Z,0.00
2022-09-23T01:12:15.486Z,0.00
2022-09-23T01:13:15.495Z,0.00
2022-09-23T01:14:15.469Z,0.00
2022-09-23T01:15:15.459Z,0.00
2022-09-23T01:16:15.510Z,0.00
2022-09-23T01:17:15.454Z,0.00
2022-09-23T01:18:15.445Z,0.00
2022-09-23T01:19:15.460Z,0.00
2022-09-23T01:20:15.437Z,0.00
2022-09-23T01:21:15.426Z,0.00
2022-09-23T01:22:15.418Z,0.00
2022-09-23T01:23:15.415Z,0.00
2022-09-23T01:24:15.404Z,0.00
2022-09-23T01:25:15.421Z,0.00
2022-09-23T01:26:15.396Z,0.00
2022-09-23T01:27:15.388Z,0.00
2022-09-23T01:28:15.400Z,0.00
2022-09-23T01:29:15.380Z,0.00
2022-09-23T01:30:15.385Z,0.00
2022-09-23T01:31:15.422Z,0.00
2022-09-23T01:32:15.391Z,0.00
2022-09-23T01:33:15.355Z,0.00
2022-09-23T01:34:15.346Z,0.00
2022-09-23T01:35:15.349Z,0.00
2022-09-23T01:36:15.338Z,0.00
2022-09-23T01:37:15.358Z,0.00
2022-09-23T01:38:15.324Z,0.00
2022-09-23T01:39:15.316Z,0.00
2022-09-23T01:40:15.402Z,0.00
2022-09-23T01:41:15.326Z,0.00
2022-09-23T01:42:15.300Z,0.00
2022-09-23T01:43:15.288Z,0.00
2022-09-23T01:44:15.304Z,0.00
2022-09-23T01:45:15.282Z,0.00
2022-09-23T01:46:15.281Z,0.00
2022-09-23T01:47:15.285Z,0.00
2022-09-23T01:48:15.288Z,0.00
2022-09-23T01:49:15.271Z,0.00
2022-09-23T01:50:15.254Z,0.00
2022-09-23T01:51:15.264Z,0.00
2022-09-23T01:52:15.236Z,0.00
2022-09-23T01:53:15.225Z,0.00
2022-09-23T01:54:15.222Z,0.00
2022-09-23T01:55:15.230Z,0.00
2022-09-23T01:56:15.207Z,0.00
2022-09-23T01:57:15.208Z,0.00
2022-09-23T01:58:15.204Z,0.00
2022-09-23T01:59:15.195Z,0.00
2022-09-23T02:00:15.213Z,0.00
2022-09-23T02:01:15.275Z,0.00
2022-09-23T02:02:15.336Z,0.00
2022-09-23T02:03:15.164Z,0.00
2022-09-23T02:04:15.163Z,0.00
2022-09-23T02:05:15.183Z,0.00
2022-09-23T02:06:15.178Z,0.00
2022-09-23T02:07:15.157Z,0.00
2022-09-23T02:08:15.155Z,0.00
2022-09-23T02:09:15.135Z,0.00
2022-09-23T02:10:15.127Z,0.00
2022-09-23T02:11:15.154Z,0.00
2022-09-23T02:12:15.115Z,0.00
2022-09-23T02:13:15.132Z,0.00
2022-09-23T02:14:15.110Z,0.00
2022-09-23T02:15:15.098Z,0.00
2022-09-23T02:16:15.158Z,0.00
2022-09-23T02:17:15.091Z,0.00
2022-09-23T02:18:15.090Z,0.00
2022-09-23T02:19:15.096Z,0.00
2022-09-23T02:20:15.065Z,0.00
2022-09-23T02:21:15.067Z,0.00
2022-09-23T02:22:15.050Z,0.00
2022-09-23T02:23:15.048Z,0.00
2022-09-23T02:24:15.064Z,0.00
2022-09-23T02:25:22.072Z,0.00
2022-09-23T02:26:15.043Z,0.00
2022-09-23T02:27:15.024Z,0.00
2022-09-23T02:28:15.013Z,0.00
2022-09-23T02:29:15.020Z,0.00
2022-09-23T02:30:15.036Z,0.00
2022-09-23T02:31:15.025Z,0.00
2022-09-23T02:32:15.096Z,0.00
2022-09-23T02:33:14.988Z,0.00
2022-09-23T02:34:14.998Z,0.00
2022-09-23T02:35:14.979Z,0.00
2022-09-23T02:36:14.993Z,0.00
2022-09-23T02:37:14.962Z,0.00
2022-09-23T02:38:14.978Z,0.00
2022-09-23T02:39:14.960Z,0.00
2022-09-23T02:40:15.012Z,0.00
2022-09-23T02:41:14.947Z,0.00
2022-09-23T02:42:14.955Z,0.00
2022-09-23T02:43:14.943Z,0.00
2022-09-23T02:44:14.940Z,0.00
2022-09-23T02:45:14.927Z,0.00
2022-09-23T02:46:14.976Z,0.00
2022-09-23T02:47:14.918Z,0.00
2022-09-23T02:48:14.942Z,0.00
2022-09-23T02:49:14.898Z,0.00
2022-09-23T02:50:14.897Z,0.00
2022-09-23T02:51:14.884Z,0.00
2022-09-23T02:52:14.888Z,0.00
2022-09-23T02:53:14.882Z,0.00
2022-09-23T02:54:14.906Z,0.00
2022-09-23T02:55:14.874Z,0.00
2022-09-23T02:56:14.865Z,0.00
2022-09-23T02:57:14.858Z,0.00
2022-09-23T02:58:14.855Z,0.00
2022-09-23T02:59:14.884Z,0.00
2022-09-23T03:00:14.849Z,0.00
2022-09-23T03:01:14.861Z,0.00
2022-09-23T03:02:14.864Z,0.00
2022-09-23T03:03:14.834Z,0.00
2022-09-23T03:04:14.828Z,0.00
2022-09-23T03:05:14.846Z,0.00
2022-09-23T03:06:14.817Z,0.00
2022-09-23T03:07:14.814Z,0.00
2022-09-23T03:08:14.809Z,0.00
2022-09-23T03:09:14.809Z,0.00
2022-09-23T03:10:14.796Z,0.00
2022-09-23T03:11:14.778Z,0.00
2022-09-23T03:12:14.803Z,0.00
2022-09-23T03:13:14.772Z,0.00
2022-09-23T03:14:14.770Z,0.00
2022-09-23T03:15:14.763Z,0.00
2022-09-23T03:16:14.819Z,0.00
2022-09-23T03:17:14.744Z,0.00
2022-09-23T03:18:14.763Z,0.00
2022-09-23T03:19:14.753Z,0.00
2022-09-23T03:20:14.740Z,0.00
2022-09-23T03:21:14.735Z,0.00
2022-09-23T03:22:14.732Z,0.00
2022-09-23T03:23:14.774Z,0.00
2022-09-23T03:24:14.709Z,0.00
2022-09-23T03:25:14.702Z,0.00
2022-09-23T03:26:14.711Z,0.00
2022-09-23T03:27:14.697Z,0.00
2022-09-23T03:28:14.715Z,0.00
2022-09-23T03:29:14.704Z,0.00
2022-09-23T03:30:14.671Z,0.00
2022-09-23T03:31:14.693Z,0.00
2022-09-23T03:32:14.663Z,0.00
2022-09-23T03:33:14.663Z,0.00
2022-09-23T03:34:14.670Z,0.00
2022-09-23T03:35:14.655Z,0.00
2022-09-23T03:36:14.640Z,0.00
2022-09-23T03:37:14.635Z,0.00
2022-09-23T03:38:14.639Z,0.00
2022-09-23T03:39:14.644Z,0.00
2022-09-23T03:40:14.685Z,0.00
2022-09-23T03:41:14.615Z,0.00
2022-09-23T03:42:14.607Z,0.00
2022-09-23T03:43:14.629Z,0.00
2022-09-23T03:44:14.601Z,0.00
2022-09-23T03:45:14.612Z,0.00
2022-09-23T03:46:14.673Z,0.00
2022-09-23T03:47:14.587Z,0.00
2022-09-23T03:48:14.602Z,0.00
2022-09-23T03:49:14.570Z,0.00
2022-09-23T03:50:14.575Z,0.00
2022-09-23T03:51:14.565Z,0.00
2022-09-23T03:52:14.551Z,0.00
2022-09-23T03:53:14.544Z,0.00
2022-09-23T03:54:14.565Z,0.00
2022-09-23T03:55:14.531Z,0.00
2022-09-23T03:56:14.530Z,0.00
2022-09-23T03:57:14.534Z,0.00
2022-09-23T03:58:14.520Z,0.00
2022-09-23T03:59:14.513Z,0.00
2022-09-23T04:00:14.525Z,0.00
2022-09-23T04:01:14.582Z,0.00
2022-09-23T04:02:14.561Z,0.00
2022-09-23T04:03:14.518Z,0.00
2022-09-23T04:04:14.489Z,0.00
2022-09-23T04:05:14.492Z,0.00
2022-09-23T04:06:14.476Z,0.00
2022-09-23T04:07:14.469Z,0.00
2022-09-23T04:08:14.496Z,0.00
2022-09-23T04:09:14.459Z,0.00
2022-09-23T04:10:14.457Z,0.00
2022-09-23T04:11:14.450Z,0.00
2022-09-23T04:12:14.447Z,0.00
2022-09-23T04:13:14.470Z,0.00
2022-09-23T04:14:14.434Z,0.00
2022-09-23T04:15:14.429Z,0.00
2022-09-23T04:16:14.591Z,0.00
2022-09-23T04:17:14.431Z,0.00
2022-09-23T04:18:14.421Z,0.00
2022-09-23T04:19:14.445Z,0.00
2022-09-23T04:20:14.418Z,0.00
2022-09-23T04:21:14.409Z,0.00
2022-09-23T04:22:14.407Z,0.00
2022-09-23T04:23:14.419Z,0.00
2022-09-23T04:24:14.399Z,0.00
2022-09-23T04:25:14.390Z,0.00
2022-09-23T04:26:14.387Z,0.00
2022-09-23T04:27:14.379Z,0.00
2022-09-23T04:28:14.380Z,1.00
2022-09-23T04:29:14.386Z,1.00
2022-09-23T04:30:14.373Z,1.00
2022-09-23T04:31:14.399Z,1.00
2022-09-23T04:32:14.358Z,1.00
2022-09-23T04:33:14.347Z,1.00
2022-09-23T04:34:14.341Z,1.00
2022-09-23T04:35:14.362Z,1.00
2022-09-23T04:36:14.364Z,1.00
2022-09-23T04:37:14.327Z,1.00
2022-09-23T04:38:14.324Z,1.00
2022-09-23T04:39:14.329Z,2.00
2022-09-23T04:40:14.385Z,1.00
2022-09-23T04:41:14.312Z,1.00
2022-09-23T04:42:14.316Z,2.00
2022-09-23T04:43:14.286Z,1.00
2022-09-23T04:44:14.287Z,2.00
2022-09-23T04:45:14.279Z,2.00
2022-09-23T04:46:14.328Z,3.00
2022-09-23T04:47:14.262Z,4.00
2022-09-23T04:48:14.266Z,3.00
2022-09-23T04:49:14.268Z,5.00
2022-09-23T04:50:14.269Z,5.00
2022-09-23T04:51:14.250Z,8.00
2022-09-23T04:52:14.243Z,8.00
2022-09-23T04:53:14.237Z,9.00
2022-09-23T04:54:14.239Z,12.00
2022-09-23T04:55:14.246Z,10.00
2022-09-23T04:56:14.218Z,13.00
2022-09-23T04:57:14.238Z,16.00
2022-09-23T04:58:14.211Z,17.00
2022-09-23T04:59:14.192Z,23.00
2022-09-23T05:00:14.199Z,24.00
2022-09-23T05:01:14.256Z,24.00
2022-09-23T05:02:14.240Z,27.00
2022-09-23T05:03:14.206Z,31.00
2022-09-23T05:04:14.286Z,33.00
2022-09-23T05:05:14.164Z,35.00
2022-09-23T05:06:14.174Z,38.00
2022-09-23T05:07:14.148Z,39.00
2022-09-23T05:08:14.174Z,41.00
2022-09-23T05:09:14.144Z,46.00
2022-09-23T05:10:14.143Z,50.00
2022-09-23T05:11:14.144Z,52.00
2022-09-23T05:12:14.166Z,56.00
2022-09-23T05:13:14.130Z,56.00
2022-09-23T05:14:14.117Z,60.00
2022-09-23T05:15:14.116Z,65.00
2022-09-23T05:16:14.166Z,68.00
2022-09-23T05:17:14.103Z,72.00
2022-09-23T05:18:16.903Z,79.00
2022-09-23T05:19:15.140Z,81.00
2022-09-23T05:20:14.086Z,87.00
2022-09-23T05:21:14.088Z,92.00
2022-09-23T05:22:14.073Z,98.00
2022-09-23T05:23:14.094Z,105.00
2022-09-23T05:24:14.068Z,109.00
2022-09-23T05:25:14.066Z,112.00
2022-09-23T05:26:14.067Z,121.00
2022-09-23T05:27:14.070Z,129.00
2022-09-23T05:28:14.042Z,138.00
2022-09-23T05:29:14.051Z,146.00
2022-09-23T05:30:14.037Z,156.00
2022-09-23T05:31:18.856Z,169.00
2022-09-23T05:32:15.049Z,180.00
2022-09-23T05:33:14.029Z,198.00
2022-09-23T05:34:14.019Z,208.00
2022-09-23T05:35:14.020Z,222.00
2022-09-23T05:36:14.008Z,228.00
2022-09-23T05:37:14.022Z,216.00
2022-09-23T05:38:14.001Z,218.00
2022-09-23T05:39:13.999Z,226.00
2022-09-23T05:40:14.044Z,231.00
2022-09-23T05:41:13.979Z,244.00
2022-09-23T05:42:13.982Z,256.00
2022-09-23T05:43:13.989Z,258.00
2022-09-23T05:44:13.965Z,252.00
2022-09-23T05:45:13.973Z,270.00
2022-09-23T05:46:14.002Z,269.00
2022-09-23T05:47:13.964Z,278.00
2022-09-23T05:48:13.953Z,286.00
2022-09-23T05:49:13.941Z,289.00
2022-09-23T05:50:13.963Z,286.00
2022-09-23T05:51:13.932Z,292.00
2022-09-23T05:52:13.939Z,304.00
2022-09-23T05:53:13.922Z,338.00
2022-09-23T05:54:13.929Z,368.00
2022-09-23T05:55:13.906Z,408.00
2022-09-23T05:56:13.923Z,431.00
2022-09-23T05:57:13.910Z,447.00
2022-09-23T05:58:13.902Z,457.00
2022-09-23T05:59:13.892Z,471.00
2022-09-23T06:00:13.881Z,499.00
2022-09-23T06:01:13.881Z,544.00
2022-09-23T06:02:13.922Z,541.00
2022-09-23T06:03:13.980Z,481.00
2022-09-23T06:04:13.859Z,541.00
2022-09-23T06:05:13.860Z,631.00
2022-09-23T06:06:13.851Z,739.00
2022-09-23T06:07:13.852Z,821.00
2022-09-23T06:08:13.836Z,918.00
2022-09-23T06:09:13.855Z,908.00
2022-09-23T06:10:13.831Z,870.00
2022-09-23T06:11:13.831Z,1048.00
2022-09-23T06:12:13.927Z,1106.00
2022-09-23T06:13:13.807Z,1035.00
2022-09-23T06:14:13.837Z,1018.00
2022-09-23T06:15:13.794Z,1221.00
2022-09-23T06:16:13.882Z,1172.00
2022-09-23T06:17:13.778Z,1131.00
2022-09-23T06:18:13.777Z,1234.00
2022-09-23T06:19:13.773Z,1537.00
2022-09-23T06:20:13.786Z,1866.00
2022-09-23T06:21:13.777Z,2345.00
2022-09-23T06:22:13.751Z,2561.00
2022-09-23T06:23:13.739Z,2433.00
2022-09-23T06:24:18.824Z,1803.00
2022-09-23T06:25:13.726Z,1541.00
2022-09-23T06:26:13.725Z,1332.00
2022-09-23T06:27:13.739Z,1351.00
2022-09-23T06:28:13.722Z,1385.00
2022-09-23T06:29:13.728Z,1580.00
2022-09-23T06:30:13.710Z,1435.00
2022-09-23T06:31:14.097Z,1474.00
2022-09-23T06:32:13.687Z,1672.00
2022-09-23T06:33:13.681Z,1622.00
2022-09-23T06:34:14.334Z,1616.00
2022-09-23T06:35:24.683Z,1679.00
2022-09-23T06:36:23.924Z,2199.00
2022-09-23T06:37:19.976Z,2676.00
2022-09-23T06:38:14.650Z,2225.00
2022-09-23T06:39:13.649Z,1977.00
2022-09-23T06:40:13.665Z,1921.00
2022-09-23T06:41:13.651Z,1616.00
2022-09-23T06:42:13.664Z,1628.00
2022-09-23T06:43:13.617Z,1747.00
2022-09-23T06:44:13.618Z,1580.00
2022-09-23T06:45:13.605Z,1242.00
2022-09-23T06:46:13.649Z,1272.00
2022-09-23T06:47:13.594Z,1368.00
2022-09-23T06:48:13.626Z,1438.00
2022-09-23T06:49:13.691Z,1276.00
2022-09-23T06:50:13.578Z,1073.00
2022-09-23T06:51:13.578Z,1026.00
2022-09-23T06:52:13.597Z,1207.00
2022-09-23T06:53:13.560Z,1456.00
2022-09-23T06:54:13.559Z,1538.00
2022-09-23T06:55:13.551Z,1747.00
2022-09-23T06:56:13.549Z,1779.00
2022-09-23T06:57:13.542Z,1902.00
2022-09-23T06:58:13.560Z,1771.00
2022-09-23T06:59:13.550Z,1472.00
2022-09-23T07:00:13.556Z,1501.00
2022-09-23T07:01:13.561Z,1604.00
2022-09-23T07:02:13.673Z,1724.00
2022-09-23T07:03:13.525Z,1861.00
2022-09-23T07:04:13.501Z,2204.00
2022-09-23T07:05:13.493Z,2581.00
2022-09-23T07:06:13.493Z,2402.00
2022-09-23T07:07:13.503Z,2295.00
2022-09-23T07:08:13.477Z,1924.00
2022-09-23T07:09:13.489Z,1886.00
2022-09-23T07:10:13.474Z,2007.00
2022-09-23T07:11:13.601Z,2113.00
2022-09-23T07:12:13.474Z,2071.00
2022-09-23T07:13:16.243Z,1862.00
2022-09-23T07:14:13.458Z,1709.00
2022-09-23T07:15:13.430Z,1756.00
2022-09-23T07:16:13.484Z,2018.00
2022-09-23T07:17:13.415Z,2134.00
2022-09-23T07:18:13.410Z,1970.00
2022-09-23T07:19:13.440Z,1962.00
2022-09-23T07:20:13.409Z,1736.00
2022-09-23T07:21:13.389Z,1677.00
2022-09-23T07:22:13.467Z,1920.00
2022-09-23T07:23:13.382Z,2160.00
2022-09-23T07:24:13.388Z,2183.00
2022-09-23T07:25:13.376Z,2409.00
2022-09-23T07:26:13.380Z,2174.00
2022-09-23T07:27:13.371Z,2229.00
2022-09-23T07:28:13.392Z,2521.00
2022-09-23T07:29:13.372Z,2223.00
2022-09-23T07:30:22.223Z,2130.00
2022-09-23T07:31:14.993Z,2172.00
2022-09-23T07:32:14.389Z,2328.00
2022-09-23T07:33:28.192Z,2318.00
2022-09-23T07:34:14.352Z,2296.00
2022-09-23T07:35:13.330Z,2401.00
2022-09-23T07:36:13.342Z,2272.00
2022-09-23T07:37:13.330Z,2394.00
2022-09-23T07:38:13.306Z,2367.00
2022-09-23T07:39:13.301Z,2428.00
2022-09-23T07:40:13.362Z,2207.00
2022-09-23T07:41:13.285Z,2283.00
2022-09-23T07:42:13.334Z,2741.00
2022-09-23T07:43:13.275Z,2437.00
2022-09-23T07:44:13.295Z,2819.00
2022-09-23T07:45:13.256Z,2882.00
2022-09-23T07:46:13.329Z,2875.00
2022-09-23T07:47:13.245Z,2757.00
2022-09-23T07:48:13.241Z,3318.00
2022-09-23T07:49:13.263Z,2882.00
2022-09-23T07:50:13.228Z,3062.00
2022-09-23T07:51:13.225Z,3141.00
2022-09-23T07:52:13.224Z,3552.00
2022-09-23T07:53:13.201Z,3543.00
2022-09-23T07:54:13.208Z,3793.00
2022-09-23T07:55:15.630Z,3680.00
2022-09-23T07:56:14.201Z,3981.00
2022-09-23T07:57:13.190Z,3912.00
2022-09-23T07:58:13.197Z,4900.00
2022-09-23T07:59:13.201Z,4796.00
2022-09-23T08:00:13.187Z,5841.00
2022-09-23T08:01:13.191Z,7376.00
2022-09-23T08:02:13.205Z,8327.00
2022-09-23T08:03:13.198Z,7334.00
2022-09-23T08:04:13.167Z,6602.00
2022-09-23T08:05:13.157Z,7242.00
2022-09-23T08:06:13.139Z,8030.00
2022-09-23T08:07:13.135Z,7652.00
2022-09-23T08:08:13.139Z,7124.00
2022-09-23T08:09:13.154Z,8518.00
2022-09-23T08:10:13.119Z,10596.00
2022-09-23T08:11:13.132Z,15740.00
2022-09-23T08:12:16.014Z,18847.00
2022-09-23T08:13:13.095Z,18819.00
2022-09-23T08:14:13.131Z,14795.00
2022-09-23T08:15:13.084Z,16764.00
2022-09-23T08:16:13.150Z,13242.00
2022-09-23T08:17:13.068Z,18449.00
2022-09-23T08:18:13.067Z,19512.00
2022-09-23T08:19:13.054Z,11307.00
2022-09-23T08:20:13.070Z,13139.00
2022-09-23T08:21:13.043Z,21074.00
2022-09-23T08:22:13.027Z,22705.00
2022-09-23T08:23:13.025Z,22742.00
2022-09-23T08:24:13.028Z,21627.00
2022-09-23T08:25:13.009Z,24828.00
2022-09-23T08:26:19.720Z,23157.00
2022-09-23T08:27:12.990Z,17121.00
2022-09-23T08:28:13.000Z,21039.00
2022-09-23T08:29:12.985Z,21284.00
2022-09-23T08:30:13.031Z,22203.00
2022-09-23T08:31:13.049Z,21647.00
2022-09-23T08:32:12.949Z,20724.00
2022-09-23T08:33:12.941Z,22606.00
2022-09-23T08:34:12.938Z,25423.00
2022-09-23T08:35:12.929Z,23824.00
2022-09-23T08:36:12.926Z,22381.00
2022-09-23T08:37:12.938Z,21352.00
2022-09-23T08:38:12.913Z,23313.00
2022-09-23T08:39:12.902Z,24054.00
2022-09-23T08:40:12.957Z,18703.00
2022-09-23T08:41:12.903Z,13137.00
2022-09-23T08:42:12.872Z,8884.00
2022-09-23T08:43:12.865Z,7530.00
2022-09-23T08:44:12.855Z,7217.00
2022-09-23T08:45:12.843Z,6738.00
2022-09-23T08:46:12.887Z,6878.00
2022-09-23T08:47:12.853Z,6729.00
2022-09-23T08:48:13.240Z,6595.00
2022-09-23T08:49:12.825Z,6402.00
2022-09-23T08:50:12.962Z,6238.00
2022-09-23T08:51:12.787Z,6052.00
2022-09-23T08:52:12.848Z,6013.00
2022-09-23T08:53:12.790Z,6014.00
2022-09-23T08:54:12.778Z,5825.00
2022-09-23T08:55:12.760Z,5777.00
2022-09-23T08:56:12.755Z,5675.00
2022-09-23T08:57:12.739Z,5616.00
2022-09-23T08:58:25.020Z,5619.00
2022-09-23T08:59:13.726Z,5569.00
2022-09-23T09:00:12.738Z,5586.00
2022-09-23T09:01:12.751Z,5426.00
2022-09-23T09:02:12.736Z,5471.00
2022-09-23T09:03:12.693Z,5369.00
2022-09-23T09:04:12.873Z,5475.00
2022-09-23T09:05:12.800Z,5449.00
2022-09-23T09:06:12.672Z,5395.00
2022-09-23T09:08:12.684Z,5404.00
2022-09-23T09:09:12.651Z,5361.00
2022-09-23T09:10:12.698Z,5307.00
2022-09-23T09:11:12.656Z,5210.00
2022-09-23T09:12:12.631Z,5209.00
2022-09-23T09:13:12.650Z,5132.00
2022-09-23T09:14:12.613Z,4995.00
2022-09-23T09:15:12.604Z,5120.00
2022-09-23T09:16:12.641Z,5102.00
2022-09-23T09:17:12.589Z,5002.00
2022-09-23T09:18:12.585Z,5027.00
2022-09-23T09:19:12.591Z,5059.00
2022-09-23T09:20:12.581Z,4947.00
2022-09-23T09:21:12.596Z,4873.00
2022-09-23T09:22:12.551Z,4874.00
2022-09-23T09:23:12.559Z,4875.00
2022-09-23T09:24:12.540Z,4914.00
2022-09-23T09:25:14.404Z,4733.00
2022-09-23T09:26:12.526Z,4873.00
2022-09-23T09:27:12.510Z,4728.00
2022-09-23T09:28:12.516Z,4530.00
2022-09-23T09:29:33.722Z,4483.00
2022-09-23T09:30:13.505Z,4138.00
2022-09-23T09:31:12.537Z,3704.00
2022-09-23T09:32:12.478Z,3724.00
2022-09-23T09:33:12.469Z,4045.00
2022-09-23T09:34:12.485Z,4234.00
2022-09-23T09:35:12.526Z,3861.00
2022-09-23T09:36:12.443Z,3910.00
2022-09-23T09:37:12.441Z,4537.00
2022-09-23T09:38:12.441Z,4682.00
2022-09-23T09:39:12.450Z,4607.00
2022-09-23T09:40:12.536Z,4685.00
2022-09-23T09:41:12.410Z,5047.00
2022-09-23T09:42:12.410Z,5225.00
2022-09-23T09:43:12.401Z,5217.00
2022-09-23T09:44:12.388Z,5163.00
2022-09-23T09:45:12.400Z,5108.00
2022-09-23T09:46:12.401Z,5002.00
2022-09-23T09:47:12.358Z,4970.00
2022-09-23T09:48:12.352Z,4906.00
2022-09-23T09:49:12.350Z,4801.00
2022-09-23T09:50:12.345Z,4741.00
2022-09-23T09:51:12.357Z,4696.00
2022-09-23T09:52:12.321Z,4600.00
2022-09-23T09:53:12.265Z,4581.00
2022-09-23T09:54:12.247Z,4531.00
2022-09-23T09:55:12.294Z,4471.00
2022-09-23T09:56:12.265Z,4406.00
2022-09-23T09:57:12.251Z,4189.00
2022-09-23T09:58:12.222Z,4241.00
2022-09-23T09:59:12.207Z,4381.00
2022-09-23T10:00:12.231Z,4409.00
2022-09-23T10:01:12.224Z,4483.00
2022-09-23T10:02:12.182Z,4413.00
2022-09-23T10:03:12.202Z,4448.00
2022-09-23T10:04:12.229Z,4386.00
2022-09-23T10:05:12.208Z,4299.00
2022-09-23T10:06:12.158Z,4111.00
2022-09-23T10:07:12.146Z,4136.00
2022-09-23T10:08:12.143Z,4158.00
2022-09-23T10:09:12.165Z,3707.00
2022-09-23T10:10:22.434Z,3997.00
2022-09-23T10:11:13.145Z,4148.00
2022-09-23T10:12:12.113Z,4306.00
2022-09-23T10:13:12.099Z,4296.00
2022-09-23T10:14:12.109Z,4317.00
2022-09-23T10:15:12.090Z,4223.00
2022-09-23T10:16:12.088Z,4198.00
2022-09-23T10:17:12.096Z,4404.00
2022-09-23T10:18:12.071Z,4444.00
2022-09-23T10:19:12.054Z,4426.00
2022-09-23T10:20:12.040Z,4433.00
2022-09-23T10:21:12.039Z,4387.00
2022-09-23T10:22:12.038Z,4303.00
2022-09-23T10:23:12.053Z,4302.00
2022-09-23T10:24:12.044Z,4351.00
2022-09-23T10:25:12.001Z,4301.00
2022-09-23T10:26:12.007Z,4319.00
2022-09-23T10:27:12.066Z,4218.00
2022-09-23T10:28:11.991Z,4088.00
2022-09-23T10:29:11.976Z,4076.00
2022-09-23T10:30:11.965Z,4182.00
2022-09-23T10:31:12.040Z,4241.00
2022-09-23T10:32:11.952Z,4097.00
2022-09-23T10:33:11.971Z,4076.00
2022-09-23T10:34:11.939Z,4127.00
2022-09-23T10:35:11.951Z,4147.00
2022-09-23T10:36:11.920Z,4204.00
2022-09-23T10:37:11.925Z,4310.00
2022-09-23T10:38:11.907Z,4254.00
2022-09-23T10:39:11.888Z,4247.00
2022-09-23T10:40:12.035Z,4254.00
2022-09-23T10:41:11.892Z,4206.00
2022-09-23T10:42:11.935Z,4113.00
2022-09-23T10:43:11.880Z,4027.00
2022-09-23T10:44:11.900Z,3979.00
2022-09-23T10:45:11.856Z,3986.00
2022-09-23T10:46:11.888Z,3933.00
2022-09-23T10:47:11.855Z,3922.00
2022-09-23T10:48:11.857Z,4028.00
2022-09-23T10:49:11.828Z,4037.00
2022-09-23T10:50:11.855Z,3990.00
2022-09-23T10:51:11.814Z,3988.00
2022-09-23T10:52:11.806Z,3818.00
2022-09-23T10:53:11.797Z,3807.00
2022-09-23T10:54:11.824Z,3934.00
2022-09-23T10:55:11.808Z,3893.00
2022-09-23T10:56:11.785Z,3939.00
2022-09-23T10:57:11.779Z,3897.00
2022-09-23T10:58:11.765Z,3823.00
2022-09-23T10:59:11.758Z,3784.00
2022-09-23T11:00:11.854Z,3822.00
2022-09-23T11:01:11.802Z,3761.00
2022-09-23T11:02:11.732Z,3769.00
2022-09-23T11:03:11.724Z,3748.00
2022-09-23T11:04:12.212Z,3692.00
2022-09-23T11:05:11.747Z,3583.00
2022-09-23T11:06:11.708Z,3676.00
2022-09-23T11:07:11.701Z,3752.00
2022-09-23T11:08:11.696Z,3739.00
2022-09-23T11:09:11.707Z,3640.00
2022-09-23T11:10:23.235Z,3624.00
2022-09-23T11:11:12.671Z,3411.00
2022-09-23T11:12:11.672Z,3437.00
2022-09-23T11:13:11.695Z,3488.00
2022-09-23T11:14:11.651Z,3424.00
2022-09-23T11:15:11.638Z,3346.00
2022-09-23T11:16:11.671Z,3459.00
2022-09-23T11:17:11.682Z,3466.00
2022-09-23T11:18:11.659Z,3499.00
2022-09-23T11:19:11.631Z,3267.00
2022-09-23T11:20:11.610Z,3484.00
2022-09-23T11:21:11.599Z,3475.00
2022-09-23T11:22:11.591Z,3475.00
2022-09-23T11:23:11.590Z,3487.00
2022-09-23T11:24:11.602Z,3384.00
2022-09-23T11:25:11.575Z,3340.00
2022-09-23T11:26:11.590Z,3383.00
2022-09-23T11:27:11.556Z,3302.00
2022-09-23T11:28:11.566Z,2971.00
2022-09-23T11:29:11.812Z,2941.00
2022-09-23T11:30:11.538Z,3055.00
2022-09-23T11:31:11.601Z,3007.00
2022-09-23T11:32:11.628Z,2971.00
2022-09-23T11:33:11.512Z,3253.00
2022-09-23T11:34:11.522Z,3354.00
2022-09-23T11:35:11.495Z,3300.00
2022-09-23T11:36:11.497Z,3330.00
2022-09-23T11:37:11.503Z,3257.00
2022-09-23T11:38:11.481Z,2769.00
2022-09-23T11:39:11.476Z,2404.00
2022-09-23T11:40:11.498Z,2398.00
2022-09-23T11:41:11.463Z,2745.00
2022-09-23T11:42:11.460Z,2768.00
2022-09-23T11:43:11.487Z,2686.00
2022-09-23T11:44:11.438Z,2446.00
2022-09-23T11:45:11.426Z,2744.00
2022-09-23T11:46:11.492Z,2586.00
2022-09-23T11:47:11.430Z,2533.00
2022-09-23T11:48:11.408Z,2588.00
2022-09-23T11:49:11.422Z,2773.00
2022-09-23T11:50:11.405Z,2834.00
2022-09-23T11:51:11.390Z,2878.00
2022-09-23T11:52:11.383Z,3019.00
2022-09-23T11:53:11.389Z,3045.00
2022-09-23T11:54:11.388Z,2984.00
2022-09-23T11:55:19.399Z,2984.00
2022-09-23T11:56:11.356Z,2901.00
2022-09-23T11:57:11.352Z,2641.00
2022-09-23T11:58:22.247Z,2915.00
2022-09-23T11:59:11.714Z,2804.00
2022-09-23T12:00:11.393Z,2656.00
2022-09-23T12:01:11.327Z,2815.00
2022-09-23T12:02:19.437Z,2791.00
2022-09-23T12:03:11.442Z,2943.00
2022-09-23T12:04:19.870Z,2783.00
2022-09-23T12:05:12.394Z,2040.00
2022-09-23T12:06:11.304Z,2162.00
2022-09-23T12:07:11.277Z,2007.00
2022-09-23T12:08:11.285Z,1855.00
2022-09-23T12:09:11.272Z,2571.00
2022-09-23T12:10:11.306Z,2643.00
2022-09-23T12:11:11.270Z,2692.00
2022-09-23T12:12:11.250Z,2695.00
2022-09-23T12:13:11.237Z,2848.00
2022-09-23T12:14:11.425Z,2891.00
2022-09-23T12:15:11.224Z,2922.00
2022-09-23T12:16:11.272Z,2882.00
2022-09-23T12:17:11.232Z,2796.00
2022-09-23T12:18:11.231Z,2755.00
